sensor_id;sensor_type;location;lat;lon;timestamp;temperature;humidity
3488;DHT22;38546;48.170;11.724;2023-04-09T00:00:13;4.30;99.90
3488;DHT22;38546;48.170;11.724;2023-04-09T00:03:03;4.30;99.90
3488;DHT22;38546;48.170;11.724;2023-04-09T00:05:53;4.30;99.90
3488;DHT22;38546;48.170;11.724;2023-04-09T00:08:43;4.30;99.90
3488;DHT22;38546;48.170;11.724;2023-04-09T00:11:32;4.30;99.90
3488;DHT22;38546;48.170;11.724;2023-04-09T00:14:21;4.30;99.90
3488;DHT22;38546;48.170;11.724;2023-04-09T00:17:10;4.30;99.90
3488;DHT22;38546;48.170;11.724;2023-04-09T00:19:59;4.30;99.90
3488;DHT22;38546;48.170;11.724;2023-04-09T00:22:49;4.40;99.90
3488;DHT22;38546;48.170;11.724;2023-04-09T00:25:39;4.40;99.90
3488;DHT22;38546;48.170;11.724;2023-04-09T00:28:29;4.40;99.90
3488;DHT22;38546;48.170;11.724;2023-04-09T00:31:18;4.40;99.90
3488;DHT22;38546;48.170;11.724;2023-04-09T00:34:08;4.50;99.90
3488;DHT22;38546;48.170;11.724;2023-04-09T00:36:57;4.40;99.90
3488;DHT22;38546;48.170;11.724;2023-04-09T00:39:46;4.40;99.90
3488;DHT22;38546;48.170;11.724;2023-04-09T00:42:36;4.40;99.90
3488;DHT22;38546;48.170;11.724;2023-04-09T00:45:26;4.40;99.90
3488;DHT22;38546;48.170;11.724;2023-04-09T00:48:16;4.40;99.90
3488;DHT22;38546;48.170;11.724;2023-04-09T00:51:07;4.40;99.90
3488;DHT22;38546;48.170;11.724;2023-04-09T00:53:56;4.40;99.90
3488;DHT22;38546;48.170;11.724;2023-04-09T00:56:46;4.40;99.90
3488;DHT22;38546;48.170;11.724;2023-04-09T00:59:37;4.40;99.90
3488;DHT22;38546;48.170;11.724;2023-04-09T01:02:27;4.40;99.90
3488;DHT22;38546;48.170;11.724;2023-04-09T01:05:17;4.40;99.90
3488;DHT22;38546;48.170;11.724;2023-04-09T01:08:25;4.40;99.90
3488;DHT22;38546;48.170;11.724;2023-04-09T01:11:42;4.40;99.90
3488;DHT22;38546;48.170;11.724;2023-04-09T01:15:17;4.40;99.90
3488;DHT22;38546;48.170;11.724;2023-04-09T01:18:18;4.40;99.90
3488;DHT22;38546;48.170;11.724;2023-04-09T01:21:17;4.50;99.90
3488;DHT22;38546;48.170;11.724;2023-04-09T01:24:35;4.40;99.90
3488;DHT22;38546;48.170;11.724;2023-04-09T01:27:41;4.50;99.90
3488;DHT22;38546;48.170;11.724;2023-04-09T01:30:34;4.50;99.90
3488;DHT22;38546;48.170;11.724;2023-04-09T01:33:24;4.50;99.90
3488;DHT22;38546;48.170;11.724;2023-04-09T01:36:15;4.50;99.90
3488;DHT22;38546;48.170;11.724;2023-04-09T01:39:05;4.50;99.90
3488;DHT22;38546;48.170;11.724;2023-04-09T01:41:55;4.50;99.90
3488;DHT22;38546;48.170;11.724;2023-04-09T01:44:45;4.50;99.90
3488;DHT22;38546;48.170;11.724;2023-04-09T01:47:35;4.50;99.90
3488;DHT22;38546;48.170;11.724;2023-04-09T01:50:26;4.50;99.90
3488;DHT22;38546;48.170;11.724;2023-04-09T01:53:15;4.50;99.90
3488;DHT22;38546;48.170;11.724;2023-04-09T01:56:05;4.50;99.90
3488;DHT22;38546;48.170;11.724;2023-04-09T01:58:55;4.50;99.90
3488;DHT22;38546;48.170;11.724;2023-04-09T02:01:52;4.50;99.90
3488;DHT22;38546;48.170;11.724;2023-04-09T02:04:46;4.50;99.90
3488;DHT22;38546;48.170;11.724;2023-04-09T02:07:44;4.50;99.90
3488;DHT22;38546;48.170;11.724;2023-04-09T02:10:37;4.50;99.90
3488;DHT22;38546;48.170;11.724;2023-04-09T02:13:28;4.50;99.90
3488;DHT22;38546;48.170;11.724;2023-04-09T02:16:19;4.50;99.90
3488;DHT22;38546;48.170;11.724;2023-04-09T02:19:09;4.50;99.90
3488;DHT22;38546;48.170;11.724;2023-04-09T02:21:59;4.50;99.90
3488;DHT22;38546;48.170;11.724;2023-04-09T02:24:48;4.50;99.90
3488;DHT22;38546;48.170;11.724;2023-04-09T02:27:37;4.50;99.90
3488;DHT22;38546;48.170;11.724;2023-04-09T02:30:27;4.50;99.90
3488;DHT22;38546;48.170;11.724;2023-04-09T02:33:16;4.50;99.90
3488;DHT22;38546;48.170;11.724;2023-04-09T02:36:05;4.50;99.90
3488;DHT22;38546;48.170;11.724;2023-04-09T02:38:54;4.50;99.90
3488;DHT22;38546;48.170;11.724;2023-04-09T02:41:43;4.50;99.90
3488;DHT22;38546;48.170;11.724;2023-04-09T02:44:33;4.40;99.90
3488;DHT22;38546;48.170;11.724;2023-04-09T02:47:23;4.40;99.90
3488;DHT22;38546;48.170;11.724;2023-04-09T02:50:14;4.40;99.90
3488;DHT22;38546;48.170;11.724;2023-04-09T02:53:05;4.40;99.90
3488;DHT22;38546;48.170;11.724;2023-04-09T02:55:54;4.40;99.90
3488;DHT22;38546;48.170;11.724;2023-04-09T02:58:44;4.40;99.90
3488;DHT22;38546;48.170;11.724;2023-04-09T03:01:33;4.40;99.90
3488;DHT22;38546;48.170;11.724;2023-04-09T03:04:22;4.40;99.90
3488;DHT22;38546;48.170;11.724;2023-04-09T03:07:11;4.40;99.90
3488;DHT22;38546;48.170;11.724;2023-04-09T03:10:00;4.40;99.90
3488;DHT22;38546;48.170;11.724;2023-04-09T03:12:49;4.40;99.90
3488;DHT22;38546;48.170;11.724;2023-04-09T03:15:39;4.40;99.90
3488;DHT22;38546;48.170;11.724;2023-04-09T03:18:28;4.40;99.90
3488;DHT22;38546;48.170;11.724;2023-04-09T03:21:17;4.30;99.90
3488;DHT22;38546;48.170;11.724;2023-04-09T03:24:07;4.30;99.90
3488;DHT22;38546;48.170;11.724;2023-04-09T03:26:56;4.20;99.90
3488;DHT22;38546;48.170;11.724;2023-04-09T03:29:46;4.10;99.90
3488;DHT22;38546;48.170;11.724;2023-04-09T03:32:35;4.00;99.90
3488;DHT22;38546;48.170;11.724;2023-04-09T03:35:24;3.90;99.90
3488;DHT22;38546;48.170;11.724;2023-04-09T03:38:13;3.80;99.90
3488;DHT22;38546;48.170;11.724;2023-04-09T03:41:03;3.70;99.90
3488;DHT22;38546;48.170;11.724;2023-04-09T03:43:52;3.70;99.90
3488;DHT22;38546;48.170;11.724;2023-04-09T03:46:41;3.60;99.90
3488;DHT22;38546;48.170;11.724;2023-04-09T03:49:30;3.60;99.90
3488;DHT22;38546;48.170;11.724;2023-04-09T03:52:19;3.60;99.90
3488;DHT22;38546;48.170;11.724;2023-04-09T03:55:09;3.60;99.90
3488;DHT22;38546;48.170;11.724;2023-04-09T03:57:58;3.50;99.90
3488;DHT22;38546;48.170;11.724;2023-04-09T04:00:47;3.50;99.90
3488;DHT22;38546;48.170;11.724;2023-04-09T04:03:37;3.50;99.90
3488;DHT22;38546;48.170;11.724;2023-04-09T04:06:26;3.50;99.90
3488;DHT22;38546;48.170;11.724;2023-04-09T04:09:15;3.50;99.90
3488;DHT22;38546;48.170;11.724;2023-04-09T04:12:04;3.50;99.90
3488;DHT22;38546;48.170;11.724;2023-04-09T04:14:53;3.50;99.90
3488;DHT22;38546;48.170;11.724;2023-04-09T04:17:43;3.50;99.90
3488;DHT22;38546;48.170;11.724;2023-04-09T04:20:32;3.50;99.90
3488;DHT22;38546;48.170;11.724;2023-04-09T04:23:21;3.60;99.90
3488;DHT22;38546;48.170;11.724;2023-04-09T04:26:11;3.70;99.90
3488;DHT22;38546;48.170;11.724;2023-04-09T04:29:00;3.60;99.90
3488;DHT22;38546;48.170;11.724;2023-04-09T04:31:49;3.60;99.90
3488;DHT22;38546;48.170;11.724;2023-04-09T04:34:38;3.50;99.90
3488;DHT22;38546;48.170;11.724;2023-04-09T04:37:28;3.50;99.90
3488;DHT22;38546;48.170;11.724;2023-04-09T04:40:17;3.50;99.90
3488;DHT22;38546;48.170;11.724;2023-04-09T04:43:06;3.50;99.90
3488;DHT22;38546;48.170;11.724;2023-04-09T04:45:55;3.60;99.90
3488;DHT22;38546;48.170;11.724;2023-04-09T04:48:44;3.60;99.90
3488;DHT22;38546;48.170;11.724;2023-04-09T04:51:34;3.60;99.90
3488;DHT22;38546;48.170;11.724;2023-04-09T04:54:23;3.70;99.90
3488;DHT22;38546;48.170;11.724;2023-04-09T04:57:12;3.70;99.90
3488;DHT22;38546;48.170;11.724;2023-04-09T05:00:01;3.70;99.90
3488;DHT22;38546;48.170;11.724;2023-04-09T05:02:51;3.60;99.90
3488;DHT22;38546;48.170;11.724;2023-04-09T05:05:40;3.60;99.90
3488;DHT22;38546;48.170;11.724;2023-04-09T05:08:29;3.50;99.90
3488;DHT22;38546;48.170;11.724;2023-04-09T05:11:18;3.40;99.90
3488;DHT22;38546;48.170;11.724;2023-04-09T05:14:09;3.40;99.90
3488;DHT22;38546;48.170;11.724;2023-04-09T05:16:58;3.40;99.90
3488;DHT22;38546;48.170;11.724;2023-04-09T05:19:51;3.40;99.90
3488;DHT22;38546;48.170;11.724;2023-04-09T05:22:41;3.40;99.90
3488;DHT22;38546;48.170;11.724;2023-04-09T05:25:30;3.50;99.90
3488;DHT22;38546;48.170;11.724;2023-04-09T05:28:19;3.60;99.90
3488;DHT22;38546;48.170;11.724;2023-04-09T05:31:09;3.70;99.90
3488;DHT22;38546;48.170;11.724;2023-04-09T05:34:01;3.80;99.90
3488;DHT22;38546;48.170;11.724;2023-04-09T05:36:50;3.90;99.90
3488;DHT22;38546;48.170;11.724;2023-04-09T05:39:39;4.00;99.90
3488;DHT22;38546;48.170;11.724;2023-04-09T05:42:28;4.10;99.90
3488;DHT22;38546;48.170;11.724;2023-04-09T05:45:18;4.20;99.90
3488;DHT22;38546;48.170;11.724;2023-04-09T05:48:07;4.30;99.90
3488;DHT22;38546;48.170;11.724;2023-04-09T05:50:57;4.40;99.90
3488;DHT22;38546;48.170;11.724;2023-04-09T05:53:46;4.50;99.90
3488;DHT22;38546;48.170;11.724;2023-04-09T05:56:35;4.30;99.90
3488;DHT22;38546;48.170;11.724;2023-04-09T05:59:24;4.20;99.90
3488;DHT22;38546;48.170;11.724;2023-04-09T06:02:15;4.20;99.90
3488;DHT22;38546;48.170;11.724;2023-04-09T06:05:04;4.20;99.90
3488;DHT22;38546;48.170;11.724;2023-04-09T06:07:54;4.20;99.90
3488;DHT22;38546;48.170;11.724;2023-04-09T06:10:43;4.30;99.90
3488;DHT22;38546;48.170;11.724;2023-04-09T06:13:32;4.40;99.90
3488;DHT22;38546;48.170;11.724;2023-04-09T06:16:20;4.40;99.90
3488;DHT22;38546;48.170;11.724;2023-04-09T06:19:10;4.50;99.90
3488;DHT22;38546;48.170;11.724;2023-04-09T06:22:00;4.60;99.90
3488;DHT22;38546;48.170;11.724;2023-04-09T06:24:48;4.70;99.90
3488;DHT22;38546;48.170;11.724;2023-04-09T06:27:38;4.90;99.90
3488;DHT22;38546;48.170;11.724;2023-04-09T06:30:27;5.00;99.90
3488;DHT22;38546;48.170;11.724;2023-04-09T06:33:17;5.10;99.90
3488;DHT22;38546;48.170;11.724;2023-04-09T06:36:06;5.40;99.90
3488;DHT22;38546;48.170;11.724;2023-04-09T06:38:55;5.40;99.90
3488;DHT22;38546;48.170;11.724;2023-04-09T06:41:45;5.60;99.90
3488;DHT22;38546;48.170;11.724;2023-04-09T06:44:34;5.70;99.90
3488;DHT22;38546;48.170;11.724;2023-04-09T06:47:23;5.90;99.90
3488;DHT22;38546;48.170;11.724;2023-04-09T06:50:12;6.10;99.90
3488;DHT22;38546;48.170;11.724;2023-04-09T06:53:01;6.40;99.90
3488;DHT22;38546;48.170;11.724;2023-04-09T06:55:50;6.50;99.90
3488;DHT22;38546;48.170;11.724;2023-04-09T06:58:39;6.70;99.90
3488;DHT22;38546;48.170;11.724;2023-04-09T07:01:28;6.70;99.90
3488;DHT22;38546;48.170;11.724;2023-04-09T07:04:18;6.80;99.90
3488;DHT22;38546;48.170;11.724;2023-04-09T07:07:06;6.80;99.90
3488;DHT22;38546;48.170;11.724;2023-04-09T07:09:55;6.80;99.90
3488;DHT22;38546;48.170;11.724;2023-04-09T07:12:45;6.80;99.90
3488;DHT22;38546;48.170;11.724;2023-04-09T07:15:34;6.70;99.90
3488;DHT22;38546;48.170;11.724;2023-04-09T07:18:23;6.60;99.90
3488;DHT22;38546;48.170;11.724;2023-04-09T07:21:12;6.60;99.90
3488;DHT22;38546;48.170;11.724;2023-04-09T07:24:01;6.70;99.90
3488;DHT22;38546;48.170;11.724;2023-04-09T07:26:50;6.80;99.90
3488;DHT22;38546;48.170;11.724;2023-04-09T07:29:43;6.90;99.90
3488;DHT22;38546;48.170;11.724;2023-04-09T07:32:32;7.00;99.90
3488;DHT22;38546;48.170;11.724;2023-04-09T07:35:21;7.10;99.90
3488;DHT22;38546;48.170;11.724;2023-04-09T07:38:10;7.20;99.90
3488;DHT22;38546;48.170;11.724;2023-04-09T07:40:59;7.20;99.90
3488;DHT22;38546;48.170;11.724;2023-04-09T07:43:47;7.20;99.90
3488;DHT22;38546;48.170;11.724;2023-04-09T07:46:36;7.20;99.90
3488;DHT22;38546;48.170;11.724;2023-04-09T07:49:27;7.40;99.90
3488;DHT22;38546;48.170;11.724;2023-04-09T07:52:16;7.60;99.90
3488;DHT22;38546;48.170;11.724;2023-04-09T07:55:05;7.70;99.90
3488;DHT22;38546;48.170;11.724;2023-04-09T07:57:55;7.90;99.90
3488;DHT22;38546;48.170;11.724;2023-04-09T08:00:43;8.00;99.90
3488;DHT22;38546;48.170;11.724;2023-04-09T08:03:33;8.20;99.90
3488;DHT22;38546;48.170;11.724;2023-04-09T08:06:24;8.30;99.90
3488;DHT22;38546;48.170;11.724;2023-04-09T08:09:15;8.40;99.90
3488;DHT22;38546;48.170;11.724;2023-04-09T08:12:08;8.50;99.90
3488;DHT22;38546;48.170;11.724;2023-04-09T08:14:57;8.60;99.90
3488;DHT22;38546;48.170;11.724;2023-04-09T08:17:47;8.70;99.90
3488;DHT22;38546;48.170;11.724;2023-04-09T08:20:36;8.70;99.90
3488;DHT22;38546;48.170;11.724;2023-04-09T08:23:25;8.80;99.90
3488;DHT22;38546;48.170;11.724;2023-04-09T08:26:15;8.90;99.90
3488;DHT22;38546;48.170;11.724;2023-04-09T08:29:04;9.00;99.90
3488;DHT22;38546;48.170;11.724;2023-04-09T08:31:54;9.40;99.90
3488;DHT22;38546;48.170;11.724;2023-04-09T08:34:43;9.30;99.90
3488;DHT22;38546;48.170;11.724;2023-04-09T08:37:32;9.40;99.90
3488;DHT22;38546;48.170;11.724;2023-04-09T08:40:23;9.60;99.90
3488;DHT22;38546;48.170;11.724;2023-04-09T08:43:14;9.50;99.90
3488;DHT22;38546;48.170;11.724;2023-04-09T08:46:09;9.80;99.90
3488;DHT22;38546;48.170;11.724;2023-04-09T08:48:58;9.60;99.90
3488;DHT22;38546;48.170;11.724;2023-04-09T08:51:48;9.60;99.90
3488;DHT22;38546;48.170;11.724;2023-04-09T08:54:37;9.70;99.90
3488;DHT22;38546;48.170;11.724;2023-04-09T08:57:27;9.90;99.90
3488;DHT22;38546;48.170;11.724;2023-04-09T09:00:16;9.80;99.90
3488;DHT22;38546;48.170;11.724;2023-04-09T09:03:08;9.70;99.90
3488;DHT22;38546;48.170;11.724;2023-04-09T09:05:58;9.50;99.90
3488;DHT22;38546;48.170;11.724;2023-04-09T09:09:07;9.30;99.90
3488;DHT22;38546;48.170;11.724;2023-04-09T09:11:59;9.20;99.90
3488;DHT22;38546;48.170;11.724;2023-04-09T09:14:50;9.00;99.90
3488;DHT22;38546;48.170;11.724;2023-04-09T09:18:00;9.20;99.90
3488;DHT22;38546;48.170;11.724;2023-04-09T09:20:50;9.50;99.90
3488;DHT22;38546;48.170;11.724;2023-04-09T09:23:39;9.70;99.90
3488;DHT22;38546;48.170;11.724;2023-04-09T09:26:29;9.60;99.90
3488;DHT22;38546;48.170;11.724;2023-04-09T09:29:19;9.80;99.90
3488;DHT22;38546;48.170;11.724;2023-04-09T09:32:12;9.70;99.90
3488;DHT22;38546;48.170;11.724;2023-04-09T09:35:03;9.80;99.90
3488;DHT22;38546;48.170;11.724;2023-04-09T09:38:01;9.30;99.90
3488;DHT22;38546;48.170;11.724;2023-04-09T09:40:52;9.20;99.90
3488;DHT22;38546;48.170;11.724;2023-04-09T09:43:41;9.40;99.90
3488;DHT22;38546;48.170;11.724;2023-04-09T09:46:34;9.40;99.90
3488;DHT22;38546;48.170;11.724;2023-04-09T09:49:24;9.90;99.90
3488;DHT22;38546;48.170;11.724;2023-04-09T09:52:15;10.30;99.90
3488;DHT22;38546;48.170;11.724;2023-04-09T09:55:08;10.30;99.90
3488;DHT22;38546;48.170;11.724;2023-04-09T09:58:15;10.30;99.90
3488;DHT22;38546;48.170;11.724;2023-04-09T10:01:13;10.40;99.90
3488;DHT22;38546;48.170;11.724;2023-04-09T10:04:08;10.40;99.90
3488;DHT22;38546;48.170;11.724;2023-04-09T10:07:04;10.40;99.90
3488;DHT22;38546;48.170;11.724;2023-04-09T10:09:56;10.20;99.90
3488;DHT22;38546;48.170;11.724;2023-04-09T10:12:46;10.10;99.90
3488;DHT22;38546;48.170;11.724;2023-04-09T10:15:36;10.10;99.90
3488;DHT22;38546;48.170;11.724;2023-04-09T10:18:27;9.90;99.90
3488;DHT22;38546;48.170;11.724;2023-04-09T10:25:07;10.30;99.90
3488;DHT22;38546;48.170;11.724;2023-04-09T10:27:59;10.10;99.90
3488;DHT22;38546;48.170;11.724;2023-04-09T10:30:54;10.60;99.90
3488;DHT22;38546;48.170;11.724;2023-04-09T10:33:43;10.10;99.90
3488;DHT22;38546;48.170;11.724;2023-04-09T10:36:35;10.20;99.90
3488;DHT22;38546;48.170;11.724;2023-04-09T10:39:30;9.90;99.90
3488;DHT22;38546;48.170;11.724;2023-04-09T10:42:22;10.40;99.90
3488;DHT22;38546;48.170;11.724;2023-04-09T10:45:13;10.30;99.90
3488;DHT22;38546;48.170;11.724;2023-04-09T10:48:05;10.20;99.90
3488;DHT22;38546;48.170;11.724;2023-04-09T10:50:55;10.20;99.90
3488;DHT22;38546;48.170;11.724;2023-04-09T10:53:44;10.30;99.90
3488;DHT22;38546;48.170;11.724;2023-04-09T10:56:35;10.00;99.90
3488;DHT22;38546;48.170;11.724;2023-04-09T10:59:24;10.20;99.90
3488;DHT22;38546;48.170;11.724;2023-04-09T11:02:49;10.00;99.90
3488;DHT22;38546;48.170;11.724;2023-04-09T11:06:31;10.00;99.90
3488;DHT22;38546;48.170;11.724;2023-04-09T11:09:21;10.40;99.90
3488;DHT22;38546;48.170;11.724;2023-04-09T11:12:11;10.40;99.90
3488;DHT22;38546;48.170;11.724;2023-04-09T11:15:00;10.50;99.90
3488;DHT22;38546;48.170;11.724;2023-04-09T11:17:49;10.60;99.90
3488;DHT22;38546;48.170;11.724;2023-04-09T11:20:39;10.60;99.90
3488;DHT22;38546;48.170;11.724;2023-04-09T11:23:29;10.00;99.90
3488;DHT22;38546;48.170;11.724;2023-04-09T11:26:24;9.60;99.90
3488;DHT22;38546;48.170;11.724;2023-04-09T11:29:22;9.80;99.90
3488;DHT22;38546;48.170;11.724;2023-04-09T11:32:11;9.50;99.90
3488;DHT22;38546;48.170;11.724;2023-04-09T11:35:01;9.40;99.90
3488;DHT22;38546;48.170;11.724;2023-04-09T11:37:51;9.60;99.90
3488;DHT22;38546;48.170;11.724;2023-04-09T11:40:43;9.80;99.90
3488;DHT22;38546;48.170;11.724;2023-04-09T11:43:36;10.10;99.90
3488;DHT22;38546;48.170;11.724;2023-04-09T11:46:25;9.80;99.90
3488;DHT22;38546;48.170;11.724;2023-04-09T11:49:16;9.90;99.90
3488;DHT22;38546;48.170;11.724;2023-04-09T11:52:05;10.30;99.90
3488;DHT22;38546;48.170;11.724;2023-04-09T11:54:59;10.30;99.90
3488;DHT22;38546;48.170;11.724;2023-04-09T11:57:50;10.30;99.90
3488;DHT22;38546;48.170;11.724;2023-04-09T12:00:42;10.60;99.90
3488;DHT22;38546;48.170;11.724;2023-04-09T12:03:31;10.70;99.90
3488;DHT22;38546;48.170;11.724;2023-04-09T12:06:21;10.50;99.90
3488;DHT22;38546;48.170;11.724;2023-04-09T12:09:12;10.60;99.90
3488;DHT22;38546;48.170;11.724;2023-04-09T12:12:02;11.00;99.90
3488;DHT22;38546;48.170;11.724;2023-04-09T12:14:56;11.10;99.90
3488;DHT22;38546;48.170;11.724;2023-04-09T12:17:57;11.10;99.90
3488;DHT22;38546;48.170;11.724;2023-04-09T12:20:47;11.40;99.90
3488;DHT22;38546;48.170;11.724;2023-04-09T12:23:37;11.90;99.90
3488;DHT22;38546;48.170;11.724;2023-04-09T12:26:27;11.60;99.90
3488;DHT22;38546;48.170;11.724;2023-04-09T12:29:20;11.30;99.90
3488;DHT22;38546;48.170;11.724;2023-04-09T12:32:09;11.30;99.90
3488;DHT22;38546;48.170;11.724;2023-04-09T12:34:59;11.20;99.90
3488;DHT22;38546;48.170;11.724;2023-04-09T12:37:49;10.70;99.90
3488;DHT22;38546;48.170;11.724;2023-04-09T12:40:39;10.60;99.90
3488;DHT22;38546;48.170;11.724;2023-04-09T12:43:28;10.80;99.90
3488;DHT22;38546;48.170;11.724;2023-04-09T12:46:18;10.70;99.90
3488;DHT22;38546;48.170;11.724;2023-04-09T12:49:08;10.80;99.90
3488;DHT22;38546;48.170;11.724;2023-04-09T12:51:57;11.00;99.90
3488;DHT22;38546;48.170;11.724;2023-04-09T12:54:46;11.10;99.90
3488;DHT22;38546;48.170;11.724;2023-04-09T12:57:36;11.10;99.90
3488;DHT22;38546;48.170;11.724;2023-04-09T13:00:26;11.40;99.90
3488;DHT22;38546;48.170;11.724;2023-04-09T13:03:19;11.20;99.90
3488;DHT22;38546;48.170;11.724;2023-04-09T13:06:09;10.90;99.90
3488;DHT22;38546;48.170;11.724;2023-04-09T13:08:58;11.00;99.90
3488;DHT22;38546;48.170;11.724;2023-04-09T13:11:47;10.70;99.90
3488;DHT22;38546;48.170;11.724;2023-04-09T13:14:41;10.90;99.90
3488;DHT22;38546;48.170;11.724;2023-04-09T13:17:31;10.50;99.90
3488;DHT22;38546;48.170;11.724;2023-04-09T13:20:20;10.30;99.90
3488;DHT22;38546;48.170;11.724;2023-04-09T13:23:09;10.50;99.90
3488;DHT22;38546;48.170;11.724;2023-04-09T13:25:58;10.40;99.90
3488;DHT22;38546;48.170;11.724;2023-04-09T13:28:49;10.30;99.90
3488;DHT22;38546;48.170;11.724;2023-04-09T13:31:39;10.50;99.90
3488;DHT22;38546;48.170;11.724;2023-04-09T13:34:29;10.50;99.90
3488;DHT22;38546;48.170;11.724;2023-04-09T13:37:19;10.60;99.90
3488;DHT22;38546;48.170;11.724;2023-04-09T13:40:09;10.80;99.90
3488;DHT22;38546;48.170;11.724;2023-04-09T13:42:58;10.80;99.90
3488;DHT22;38546;48.170;11.724;2023-04-09T13:45:48;10.80;99.90
3488;DHT22;38546;48.170;11.724;2023-04-09T13:48:37;10.60;99.90
3488;DHT22;38546;48.170;11.724;2023-04-09T13:51:27;10.50;99.90
3488;DHT22;38546;48.170;11.724;2023-04-09T13:54:18;10.40;99.90
3488;DHT22;38546;48.170;11.724;2023-04-09T13:57:07;10.50;99.90
3488;DHT22;38546;48.170;11.724;2023-04-09T13:59:58;10.60;99.90
3488;DHT22;38546;48.170;11.724;2023-04-09T14:02:51;10.60;99.90
3488;DHT22;38546;48.170;11.724;2023-04-09T14:05:41;10.70;99.90
3488;DHT22;38546;48.170;11.724;2023-04-09T14:08:30;10.70;99.90
3488;DHT22;38546;48.170;11.724;2023-04-09T14:11:19;10.80;99.90
3488;DHT22;38546;48.170;11.724;2023-04-09T14:14:09;10.80;99.90
3488;DHT22;38546;48.170;11.724;2023-04-09T14:16:58;10.90;99.90
3488;DHT22;38546;48.170;11.724;2023-04-09T14:19:48;10.80;99.90
3488;DHT22;38546;48.170;11.724;2023-04-09T14:22:37;10.70;99.90
3488;DHT22;38546;48.170;11.724;2023-04-09T14:25:26;10.70;99.90
3488;DHT22;38546;48.170;11.724;2023-04-09T14:28:15;10.70;99.90
3488;DHT22;38546;48.170;11.724;2023-04-09T14:31:05;11.10;99.90
3488;DHT22;38546;48.170;11.724;2023-04-09T14:33:55;10.90;99.90
3488;DHT22;38546;48.170;11.724;2023-04-09T14:36:44;10.80;99.90
3488;DHT22;38546;48.170;11.724;2023-04-09T14:39:34;11.00;99.90
3488;DHT22;38546;48.170;11.724;2023-04-09T14:42:23;11.00;99.90
3488;DHT22;38546;48.170;11.724;2023-04-09T14:45:12;10.90;99.90
3488;DHT22;38546;48.170;11.724;2023-04-09T14:48:02;10.90;99.90
3488;DHT22;38546;48.170;11.724;2023-04-09T14:50:52;11.10;99.90
3488;DHT22;38546;48.170;11.724;2023-04-09T14:53:41;10.90;99.90
3488;DHT22;38546;48.170;11.724;2023-04-09T14:56:31;10.70;99.90
3488;DHT22;38546;48.170;11.724;2023-04-09T14:59:20;10.50;99.90
3488;DHT22;38546;48.170;11.724;2023-04-09T15:02:09;10.50;99.90
3488;DHT22;38546;48.170;11.724;2023-04-09T15:04:59;10.30;99.90
3488;DHT22;38546;48.170;11.724;2023-04-09T15:07:49;10.50;99.90
3488;DHT22;38546;48.170;11.724;2023-04-09T15:10:38;10.20;99.90
3488;DHT22;38546;48.170;11.724;2023-04-09T15:13:27;10.10;99.90
3488;DHT22;38546;48.170;11.724;2023-04-09T15:16:22;10.00;99.90
3488;DHT22;38546;48.170;11.724;2023-04-09T15:19:12;10.00;99.90
3488;DHT22;38546;48.170;11.724;2023-04-09T15:22:01;9.90;99.90
3488;DHT22;38546;48.170;11.724;2023-04-09T15:24:51;9.90;99.90
3488;DHT22;38546;48.170;11.724;2023-04-09T15:27:41;9.90;99.90
3488;DHT22;38546;48.170;11.724;2023-04-09T15:30:31;10.20;99.90
3488;DHT22;38546;48.170;11.724;2023-04-09T15:33:20;10.40;99.90
3488;DHT22;38546;48.170;11.724;2023-04-09T15:36:09;10.10;99.90
3488;DHT22;38546;48.170;11.724;2023-04-09T15:39:00;10.00;99.90
3488;DHT22;38546;48.170;11.724;2023-04-09T15:41:51;10.00;99.90
3488;DHT22;38546;48.170;11.724;2023-04-09T15:44:40;10.20;99.90
3488;DHT22;38546;48.170;11.724;2023-04-09T15:47:29;10.30;99.90
3488;DHT22;38546;48.170;11.724;2023-04-09T15:50:17;10.00;99.90
3488;DHT22;38546;48.170;11.724;2023-04-09T15:53:07;9.90;99.90
3488;DHT22;38546;48.170;11.724;2023-04-09T15:55:56;10.20;99.90
3488;DHT22;38546;48.170;11.724;2023-04-09T15:58:45;10.00;99.90
3488;DHT22;38546;48.170;11.724;2023-04-09T16:01:35;10.30;99.90
3488;DHT22;38546;48.170;11.724;2023-04-09T16:04:24;10.20;99.90
3488;DHT22;38546;48.170;11.724;2023-04-09T16:07:14;10.10;99.90
3488;DHT22;38546;48.170;11.724;2023-04-09T16:10:07;10.20;99.90
3488;DHT22;38546;48.170;11.724;2023-04-09T16:12:56;10.00;99.90
3488;DHT22;38546;48.170;11.724;2023-04-09T16:15:45;10.00;99.90
3488;DHT22;38546;48.170;11.724;2023-04-09T16:18:34;9.90;99.90
3488;DHT22;38546;48.170;11.724;2023-04-09T16:21:23;9.70;99.90
3488;DHT22;38546;48.170;11.724;2023-04-09T16:24:13;9.80;99.90
3488;DHT22;38546;48.170;11.724;2023-04-09T16:27:02;9.90;99.90
3488;DHT22;38546;48.170;11.724;2023-04-09T16:29:51;10.00;99.90
3488;DHT22;38546;48.170;11.724;2023-04-09T16:32:40;10.00;99.90
3488;DHT22;38546;48.170;11.724;2023-04-09T16:35:29;9.90;99.90
3488;DHT22;38546;48.170;11.724;2023-04-09T16:38:19;9.70;99.90
3488;DHT22;38546;48.170;11.724;2023-04-09T16:41:08;9.80;99.90
3488;DHT22;38546;48.170;11.724;2023-04-09T16:43:57;9.80;99.90
3488;DHT22;38546;48.170;11.724;2023-04-09T16:46:46;9.70;99.90
3488;DHT22;38546;48.170;11.724;2023-04-09T16:49:35;9.60;99.90
3488;DHT22;38546;48.170;11.724;2023-04-09T16:52:24;9.60;99.90
3488;DHT22;38546;48.170;11.724;2023-04-09T16:55:14;9.60;99.90
3488;DHT22;38546;48.170;11.724;2023-04-09T16:58:03;9.80;99.90
3488;DHT22;38546;48.170;11.724;2023-04-09T17:00:52;9.70;99.90
3488;DHT22;38546;48.170;11.724;2023-04-09T17:03:41;9.70;99.90
3488;DHT22;38546;48.170;11.724;2023-04-09T17:06:30;9.60;99.90
3488;DHT22;38546;48.170;11.724;2023-04-09T17:09:19;9.60;99.90
3488;DHT22;38546;48.170;11.724;2023-04-09T17:12:09;9.50;99.90
3488;DHT22;38546;48.170;11.724;2023-04-09T17:14:59;9.40;99.90
3488;DHT22;38546;48.170;11.724;2023-04-09T17:17:48;9.40;99.90
3488;DHT22;38546;48.170;11.724;2023-04-09T17:20:40;9.30;99.90
3488;DHT22;38546;48.170;11.724;2023-04-09T17:23:28;9.20;99.90
3488;DHT22;38546;48.170;11.724;2023-04-09T17:26:18;9.10;99.90
3488;DHT22;38546;48.170;11.724;2023-04-09T17:29:08;9.10;99.90
3488;DHT22;38546;48.170;11.724;2023-04-09T17:31:58;9.00;99.90
3488;DHT22;38546;48.170;11.724;2023-04-09T17:34:47;8.90;99.90
3488;DHT22;38546;48.170;11.724;2023-04-09T17:37:40;8.90;99.90
3488;DHT22;38546;48.170;11.724;2023-04-09T17:40:29;8.80;99.90
3488;DHT22;38546;48.170;11.724;2023-04-09T17:43:18;8.70;99.90
3488;DHT22;38546;48.170;11.724;2023-04-09T17:46:07;8.60;99.90
3488;DHT22;38546;48.170;11.724;2023-04-09T17:48:56;8.50;99.90
3488;DHT22;38546;48.170;11.724;2023-04-09T17:51:45;8.50;99.90
3488;DHT22;38546;48.170;11.724;2023-04-09T17:54:34;8.50;99.90
3488;DHT22;38546;48.170;11.724;2023-04-09T17:57:23;8.50;99.90
3488;DHT22;38546;48.170;11.724;2023-04-09T18:00:13;8.40;99.90
3488;DHT22;38546;48.170;11.724;2023-04-09T18:03:02;8.30;99.90
3488;DHT22;38546;48.170;11.724;2023-04-09T18:05:52;8.20;99.90
3488;DHT22;38546;48.170;11.724;2023-04-09T18:08:41;8.10;99.90
3488;DHT22;38546;48.170;11.724;2023-04-09T18:11:31;8.00;99.90
3488;DHT22;38546;48.170;11.724;2023-04-09T18:14:20;7.90;99.90